Tiempo atmosférico en la estación meteorológica de Chinchilla, Albacete (880 m.)



Fecha
DESCASC
Temp. máxima en grados centígrados (hora)
DESCASC
Temp. mínima en grados centígrados (hora)
DESCASC
Temp. media en grados centígrados
DESCASC
Racha de viento máxima en m/sg (hora)
DESCASC
Velocidad máxima media en intervalos de 10 minutos(hora)
DESCASC
Precipitaciones diarias en mm
DESCASC
Precipitaciones de 00:00 a 06:00 en mm
DESCASC
Precipitaciones de 06:00 a 12:00 en mm
DESCASC
Precipitaciones de 12:00 a 18:00 en mm
DESCASC
Precipitaciones de 18:00 a 24:00 en mm
DESCASC
22-04-2019 11.8 (18:40) 5.1 (00:30) 8.5 10.83 (14:50) 6.39 (14:30) 6 5.8 0.2 0 0
21-04-2019 8.2 (12:50) 5.1 (23:59) 6.6 13.06 (00:50) 5.28 (21:40) 23.8 0 0 0.9 22.9
20-04-2019 -- (--) -- (--) -- 19.72 (09:50) 8.89 (07:20) -- 15.8 0.5 -- 0
19-04-2019 7.9 (14:30) 5 (23:50) 6.5 8.06 (10:50) 5.28 (10:50) 52.9 0 4.7 22.9 25.3
18-04-2019 10.3 (11:00) 5.4 (00:00) 7.9 12.22 (01:20) 8.33 (01:10) 10.1 0 0 10.1 0
17-04-2019 19.2 (16:40) 6.7 (00:00) 13 13.61 (14:50) 10 (13:30) 0 0 0 0 0
16-04-2019 21.9 (16:30) 6 (00:00) 13.9 12.78 (00:20) 9.17 (20:10) 0 0 0 0 0
15-04-2019 24.7 (17:10) 10.7 (00:00) 17.7 10.56 (23:59) 6.39 (12:50) 0 0 0 0 0
14-04-2019 21.3 (17:10) 8.2 (00:00) 14.7 10.28 (16:00) 5.28 (18:30) 0 0 0 0 0
13-04-2019 18.1 (17:50) 4.3 (00:00) 11.2 12.22 (12:30) 6.67 (12:40) 0 0 0 0 0
12-04-2019 14.6 (19:00) 0.8 (00:00) 7.7 12.78 (15:10) 7.5 (16:20) 0 0 0 0 0
11-04-2019 -- (--) -- (--) -- -- (--) -- (--) -- 0 -- -- 0
10-04-2019 11 (15:00) 3.8 (00:00) 7.4 14.17 (11:00) 8.61 (02:20) 1.5 1.4 0.1 0 0
09-04-2019 11.2 (16:20) 3.3 (00:00) 7.2 16.67 (16:50) 10.83 (16:50) 1.4 0 0 0.7 0.7
08-04-2019 13.8 (15:10) 6.3 (00:00) 10.1 14.17 (15:40) 8.33 (15:40) 3.4 0.4 0.2 0.9 1.9
07-04-2019 11.1 (17:00) 1.6 (00:00) 6.4 18.89 (11:00) 9.17 (11:00) 1.1 0.5 0.6 0 0
06-04-2019 8.3 (14:40) 1.7 (00:00) 5 18.89 (19:00) 10.83 (11:20) 2.6 0 0 2.5 0.1
05-04-2019 11.5 (12:30) 1.8 (00:00) 6.6 18.33 (19:50) 9.44 (20:00) 4.5 0 0 4.4 0.1
04-04-2019 14.1 (18:10) 0.5 (00:00) 7.3 9.72 (21:10) 6.11 (21:40) 0 0 0 0 0
03-04-2019 16.3 (16:10) 6.3 (00:00) 11.3 12.22 (16:20) 7.5 (12:30) 0.1 0.1 0 0 0
02-04-2019 15.7 (17:10) 6.3 (00:00) 11 11.39 (20:30) 6.67 (20:30) 5.3 0.4 0 0.4 4.5
01-04-2019 14.6 (14:00) 6.8 (00:00) 10.7 10.56 (17:30) 5.83 (17:40) 12.9 0.4 0.2 10.5 1.8
31-03-2019 9.6 (18:00) 4.1 (00:00) 6.9 11.39 (19:00) 7.5 (19:00) 15.4 0.8 10.7 3.8 0.1
30-03-2019 17.4 (15:20) 0.7 (00:00) 9 10.83 (19:20) 8.06 (19:50) 0 0 0 0 0
29-03-2019 15.4 (15:10) 0.6 (00:00) 8 11.94 (13:10) 8.06 (18:20) 0 0 0 0 0
28-03-2019 17.7 (14:30) 0.4 (00:00) 9.1 11.11 (13:50) 6.11 (18:00) 0 0 0 0 0
27-03-2019 17 (16:40) -0.2 (00:00) 8.4 9.17 (16:50) 6.11 (00:30) 0 0 0 0 0

Gráficas

Temp. máximas Temp. mínimas Temp. medias Precipitaciones Rachas de viento máximas Velocidades máximas media en intervalos de 10 minutos

Datos horarios

Fecha y hora oficial Temperatura (ºC) Velocidad del viento (km/h) Dirección del viento Racha (km/h) Dirección de racha Precipitación (mm) Presión (hPa) Tendencia (hPa) Humedad (%)
2019-04-25 11:00:00 6.6 17 Norte 27 Norte 1 912 2 92
2019-04-25 10:00:00 6.8 13 Noroeste 20 Noroeste 1.3 911 1.4 92
2019-04-25 09:00:00 6.8 14 Noroeste 27 Noroeste 1.2 910.6 1.3 92
2019-04-25 08:00:00 6.8 17 Norte 41 Noroeste 1.3 910 0.8 92
2019-04-25 07:00:00 9 15 Oeste 35 Noroeste 0.1 909.6 0.5 78
2019-04-25 06:00:00 9.2 7 Sudoeste 23 Sudoeste 0 909.3 -0.1 71
2019-04-25 05:00:00 9.4 15 Sudoeste 22 Sudoeste 0 909.2 -0.9 69
2019-04-25 04:00:00 9.1 14 Sudoeste 25 Sudoeste 0 909.1 -1.2 69
2019-04-25 03:00:00 8.9 12 Sudoeste 22 Sudoeste 0 909.4 -1 72
2019-04-25 02:00:00 8.7 9 Sudoeste 25 Sudoeste 0 910.1 -0.3 73
2019-04-25 01:00:00 8.7 5 Sudoeste 16 Sudoeste 0 910.3 0 73
2019-04-25 00:00:00 9.4 9 Sur 15 Sudoeste 0 910.4 0.7 71
2019-04-24 23:00:00 9.6 11 Sudoeste 21 Sudoeste 0 910.4 1.3 70
2019-04-24 22:00:00 10.4 13 Sudoeste 23 Sur 0 910.3 1.3 64
2019-04-24 21:00:00 12 12 Sudoeste 28 Sur 0 909.7 1.1 55
2019-04-24 20:00:00 13.9 15 Sudoeste 33 Sur 0 909.1 0.3 46
2019-04-24 19:00:00 14.4 20 Sudoeste 32 Sur 0 909 -0.2 45
2019-04-24 18:00:00 15 20 Sur 32 Sur 0 908.6 -0.9 42
2019-04-24 17:00:00 14.1 18 Sudoeste 35 Oeste 0 908.8 -0.6 43
2019-04-24 16:00:00 14.5 23 Sudoeste 37 Sudoeste 0 909.2 -0.5 42
2019-04-24 15:00:00 14.6 24 Sudoeste 40 Sudoeste 0 909.5 0.2 44
2019-04-24 14:00:00 13.2 23 Sudoeste 41 Sudoeste 0 909.4 0.6 46
2019-04-24 13:00:00 12.1 25 Sudoeste 39 Sudoeste 0 909.7 1.6 49
2019-04-24 12:00:00 10.5 22 Sudoeste 48 Sudoeste 0 909.3 2.3 54
2019-04-24 11:00:00 8.2 24 Sudoeste 35 Sudoeste 0 908.8 2.5 60
2019-04-24 10:00:00 6.9 22 Sudoeste 31 Sudoeste 0 908.1 2.3 68
2019-04-24 09:00:00 3.9 12 Sudoeste 18 Oeste 0 907 1.9 81
2019-04-24 08:00:00 2.8 16 Oeste 29 Oeste 0 906.3 1.2 81
2019-04-24 07:00:00 2.9 13 Oeste 22 Oeste 0 905.8 1 82
2019-04-24 06:00:00 2.8 14 Noroeste 27 Noroeste 0 905.1 0.6 83
2019-04-24 05:00:00 2.2 14 Oeste 25 Oeste 0 905.1 0.7 83
2019-04-24 04:00:00 3 12 Oeste 27 Oeste 0 904.8 0.6 83
2019-04-24 03:00:00 2.3 8 Oeste 29 Noroeste 0 904.5 0.9 84
2019-04-24 02:00:00 2.5 16 Oeste 39 Noroeste 0 904.4 1 81
2019-04-24 01:00:00 2.9 19 Oeste 33 Oeste 0 904.2 1.8 80
2019-04-24 00:00:00 2.7 16 Noroeste 34 Oeste 0 903.6 1.8 79
2019-04-23 23:00:00 3.8 16 Oeste 38 Noroeste 0 903.4 2.3 76
2019-04-23 22:00:00 4.8 20 Oeste 35 Noroeste 0 902.4 1.5 66
2019-04-23 21:00:00 5.5 17 Oeste 39 Noroeste 0 901.8 1.7 62
2019-04-23 20:00:00 7.1 23 Oeste 51 Oeste 0 901.1 0.9 54
2019-04-23 19:00:00 9.2 23 Oeste 48 Oeste 0 900.9 0.7 51
2019-04-23 18:00:00 11 25 Oeste 42 Oeste 0 900.1 -0.4 49
2019-04-23 17:00:00 9.4 22 Noroeste 36 Oeste 0 900.2 -0.4 58
2019-04-23 16:00:00 9.6 10 Sudoeste 21 Sudoeste 0 900.2 -0.6 78
2019-04-23 15:00:00 9 16 Sudoeste 27 Oeste 0.6 900.5 0.1 83
2019-04-23 14:00:00 7.6 16 Oeste 35 Noroeste 1 900.6 0.8 84
2019-04-23 13:00:00 9.6 10 Oeste 21 Noroeste 0.2 900.8 1.2 72
2019-04-23 12:00:00 10.1 9 Sur 14 Sur 0 900.4 1.2 71
2019-04-23 11:00:00 9.5 4 Norte 9 Norte 0.1 899.8 0.7 80
2019-04-23 10:00:00 7.9 3 Noroeste 35 Oeste 1.1 899.6 0.5 79
2019-04-23 09:00:00 9.4 22 Oeste 37 Oeste 0 899.2 -0.1 60
2019-04-23 08:00:00 7.5 15 Oeste 36 Sudoeste 0 899.1 -0.2 72
2019-04-23 07:00:00 7.1 15 Oeste 27 Oeste 0 899.1 -0.6 71
2019-04-23 06:00:00 6.6 0 Calma 22 Sudoeste 0 899.3 -0.9 71
2019-04-23 05:00:00 7 7 Noroeste 19 Oeste 0 899.3 -1.2 72
2019-04-23 04:00:00 7.5 4 Noroeste 10 Sudoeste 0 899.7 -1.3 78
2019-04-23 03:00:00 7.6 0 Calma 8 Sudeste 0 900.2 -1 78
2019-04-23 02:00:00 7.6 0 Calma 10 Este 0 900.5 -1.1 78
2019-04-23 01:00:00 8 3 Sudeste 5 Sudeste 0 901 -0.6 77
2019-04-23 00:00:00 7.5 0 Calma 11 Noroeste 0 901.2 -0.3 78
2019-04-22 23:00:00 8.6 9 Noroeste 18 Noroeste 0 901.6 0 74
2019-04-22 22:00:00 8.6 11 Noroeste 15 Noroeste 0 901.6 0 74
2019-04-22 21:00:00 9.5 5 Noroeste 21 Oeste 0 901.5 0.2 73
2019-04-22 20:00:00 10.2 15 Noroeste 25 Oeste 0 901.6 0.1 68
2019-04-22 19:00:00 10.9 16 Oeste 33 Noroeste 0 901.6 -0.2 63
2019-04-22 18:00:00 11.2 16 Noroeste 35 Noroeste 0 901.3 -0.9 64
2019-04-22 17:00:00 10.1 15 Noroeste 31 Noroeste 0 901.5 -0.7 68
2019-04-22 16:00:00 10 17 Noroeste 32 Noroeste 0 901.8 -0.8 68
2019-04-22 15:00:00 9.6 20 Noroeste 39 Noroeste 0 902.2 -0.2 69
2019-04-22 14:00:00 10.1 21 Noroeste 36 Norte 0 902.2 -0.4 68
2019-04-22 13:00:00 9.4 19 Noroeste 33 Norte 0 902.6 0.2 74
2019-04-22 12:00:00 8.4 15 Noroeste 28 Noroeste 0 902.4 0.1 88
2019-04-22 11:00:00 6.8 16 Noroeste 28 Norte 0 902.6 0.4 93
2019-04-22 10:00:00 6.3 11 Noroeste 26 Noroeste 0 902.4 0.3 93
2019-04-22 09:00:00 5.8 13 Norte 28 Norte 0 902.3 -0.2 93
2019-04-22 08:00:00 5.6 15 Noroeste 26 Noroeste 0 902.2 -0.7 93
2019-04-22 07:00:00 5.6 16 Norte 24 Noroeste 0.2 902.1 -1.1 93
2019-04-22 06:00:00 5.7 10 Norte 23 Norte 0.3 902.5 -1.6 93
2019-04-22 05:00:00 5.6 13 Norte 24 Norte 0.2 902.9 -2 93
2019-04-22 04:00:00 5.6 11 Norte 23 Norte 0.4 903.2 -2.2 93
2019-04-22 03:00:00 5.7 12 Nordeste 28 Norte 1.9 904.1 -1.7 93
2019-04-22 02:00:00 5.7 14 Norte 32 Nordeste 1.1 904.9 -1.4 93
2019-04-22 01:00:00 5.4 14 Norte 31 Nordeste 1.9 905.4 -1.1 93
2019-04-22 00:00:00 5.3 12 Nordeste 28 Nordeste 2.4 905.8 -0.6 93
2019-04-21 23:00:00 5.4 12 Nordeste 26 Norte 6 906.3 -0.1 93
2019-04-21 22:00:00 5.6 13 Norte 28 Norte 4.9 906.5 0.2 93
2019-04-21 21:00:00 5.7 12 Nordeste 24 Nordeste 3.9 906.4 0 92
2019-04-21 20:00:00 5.9 15 Nordeste 33 Nordeste 3.7 906.4 -0.1 91
2019-04-21 19:00:00 6.5 10 Nordeste 24 Norte 2 906.3 -0.8 90
2019-04-21 18:00:00 6.6 13 Nordeste 31 Nordeste 0.3 906.4 -1 88
2019-04-21 17:00:00 7 13 Nordeste 33 Este 0.4 906.5 -1.1 87
2019-04-21 16:00:00 6.9 15 Nordeste 41 Nordeste 0.1 907.1 -1.3 84
2019-04-21 15:00:00 6.9 13 Nordeste 35 Nordeste 0 907.4 -1.4 86
2019-04-21 14:00:00 7.1 16 Nordeste 39 Nordeste 0.1 907.6 -1.7 81
2019-04-21 13:00:00 7.9 12 Nordeste 30 Nordeste 0 908.4 -0.6 73
2019-04-21 12:00:00 7.5 12 Nordeste 28 Este 0 908.8 -0.3 73
2019-04-21 11:00:00 7 11 Nordeste 27 Este 0 909.3 0 74
2019-04-21 10:00:00 7.2 9 Nordeste 33 Nordeste 0 909 -0.3 74
2019-04-21 09:00:00 6.4 9 Nordeste 25 Este 0 909.1 -0.6 77
2019-04-21 08:00:00 6.2 7 Nordeste 20 Este 0 909.3 -1 77
2019-04-21 07:00:00 6.1 8 Nordeste 25 Nordeste 0 909.3 -1.5 77
2019-04-21 06:00:00 6.2 9 Nordeste 22 Este 0 909.7 -1.7 75
2019-04-21 05:00:00 6.3 10 Nordeste 32 Nordeste 0 910.3 -1.7 75
2019-04-21 04:00:00 6.3 12 Nordeste 36 Este 0 910.8 -1.8 74
2019-04-21 03:00:00 6.4 12 Nordeste 35 Este 0 911.4 -1.7 73
2019-04-21 02:00:00 6.4 15 Nordeste 38 Este 0 912 -1.6 74
2019-04-21 01:00:00 6.4 16 Nordeste 47 Este 0 912.6 -0.9 75
2019-04-21 00:00:00 6.7 14 Nordeste 38 Este 0 913.1 0 70
2019-04-20 23:00:00 7 17 Nordeste 39 Nordeste 0 913.6 0.3 67
2019-04-20 22:00:00 7.3 15 Nordeste 35 Este 0 913.5 0.6 65
2019-04-20 21:00:00 7.4 17 Nordeste 41 Este 0 913.1 0.6 65
2019-04-20 20:00:00 7.9 12 Este 50 Este 0 913.3 0.5 66
2019-04-20 19:00:00 8.3 18 Este 58 Este 0 912.9 -- 65
2019-04-20 18:00:00 8.9 19 Este 50 Este 0 912.5 -1.1 69
2019-04-20 17:00:00 7.4 22 Este 45 Este 0.2 912.8 0 77
2019-04-20 16:00:00 -- -- -- -- -- -- -- -- --
2019-04-20 15:00:00 8.2 22 Este 53 Este 0 913.6 0.9 76
2019-04-20 14:00:00 9 19 Este 58 Este 0 912.8 0.6 72
2019-04-20 13:00:00 8.2 17 Este 61 Sudeste 0 912.7 1.2 74
2019-04-20 12:00:00 8.5 20 Este 53 Nordeste 0 912.7 1.3 75
2019-04-20 11:00:00 8.1 21 Este 59 Este 0 912.2 1.1 77
2019-04-20 10:00:00 7.4 21 Este 71 Este 0 911.5 -- 82
2019-04-20 09:00:00 6.8 27 Este 62 Este 0.4 911.4 2.4 82
2019-04-20 08:00:00 6.9 23 Este 59 Sudeste 0 911.1 -0.3 81
2019-04-20 07:00:00 -- 27 Este 58 Este 0.1 -- -- --
2019-04-20 06:00:00 6.8 28 Nordeste 60 Nordeste 1.6 909 -3.8 92
2019-04-20 05:00:00 7 26 Este 59 Este 0.2 911.4 -2 94
2019-04-20 04:00:00 7.5 21 Este 43 Nordeste 0.1 911.9 -3.2 94
2019-04-20 03:00:00 7.3 13 Este 35 Nordeste 0.8 912.8 -2.5 94
2019-04-20 02:00:00 5.6 15 Norte 27 Noroeste 5.6 913.4 -2.3 94
2019-04-20 01:00:00 5.2 15 Norte 25 Norte 7.5 915.1 -0.4 94
2019-04-20 00:00:00 5.1 14 Norte 23 Norte 8.9 915.3 0.1 94
2019-04-19 23:00:00 5.3 13 Norte 24 Norte 5.4 915.7 1.2 94
2019-04-19 22:00:00 5.2 14 Norte 25 Norte 1.5 915.5 1.2 94
2019-04-19 21:00:00 5.4 15 Norte 21 Norte 3.1 915.2 1.2 94
2019-04-19 20:00:00 5.5 11 Norte 23 Norte 2.7 914.5 0.6 94
2019-04-19 19:00:00 5.9 9 Nordeste 20 Nordeste 3.7 914.3 0.3 94
2019-04-19 18:00:00 6.5 10 Nordeste 19 Nordeste 3.5 914 -0.1 94
2019-04-19 17:00:00 6.7 8 Norte 18 Norte 4.3 913.9 -0.1 92
2019-04-19 16:00:00 7.3 4 Nordeste 8 Nordeste 6.2 914 0.4 92
2019-04-19 15:00:00 7.7 0 Calma 12 Sudeste 3.9 914.1 0.1 92
2019-04-19 14:00:00 7.6 8 Sudeste 13 Sur 3.5 914 -0.2 92
2019-04-19 13:00:00 7.5 11 Sur 23 Sur 1.5 913.6 -0.1 91
2019-04-19 12:00:00 7.6 14 Sur 21 Sudeste 0.7 914 0.6 92
2019-04-19 11:00:00 7.4 18 Sudeste 29 Sudeste 2.1 914.2 1.3 93
2019-04-19 10:00:00 7.4 13 Este 19 Sudeste 1.4 913.7 1.1 92
2019-04-19 09:00:00 6.9 12 Este 17 Este 0.4 913.4 1.3 92
2019-04-19 08:00:00 6.7 6 Este 15 Este 0.1 912.9 0.5 92
2019-04-19 07:00:00 6.5 6 Este 14 Este 0 912.6 0.5 92
2019-04-19 06:00:00 6.3 8 Este 14 Este 0 912.1 0 92
2019-04-19 05:00:00 6 9 Este 15 Sudeste 0 912.4 0.1 92
2019-04-19 04:00:00 6.2 6 Sudeste 14 Sudeste 0 912.1 0 92
2019-04-19 03:00:00 6.2 0 Calma 13 Este 0 912.1 0.2 92
2019-04-19 02:00:00 6 7 Este 14 Este 0 912.3 0.6 92
2019-04-19 01:00:00 5.8 3 Sudeste 12 Este 0 912.1 0.7 91
2019-04-19 00:00:00 5.7 3 Sudeste 6 Sudeste 0 911.9 1.1 91
2019-04-18 23:00:00 5.8 0 Calma 12 Este 0 911.7 1.2 88
2019-04-18 22:00:00 6.3 9 Este 10 Sudeste 0 911.4 1.4 86
2019-04-18 21:00:00 7.6 6 Sudeste 12 Sur 0 910.8 1 80
2019-04-18 20:00:00 9.1 6 Sur 18 Sudeste 0 910.5 0.6 83
2019-04-18 19:00:00 7.6 8 Sudeste 22 Este 0 910 -1.3 91
2019-04-18 18:00:00 7 13 Este 24 Sudeste 0.4 909.8 -1.2 92
2019-04-18 17:00:00 6.8 9 Este 17 Nordeste 2.2 909.9 -1.9 94
2019-04-18 16:00:00 6.5 0 Calma 21 Noroeste 3.2 911.3 -1.2 94
2019-04-18 15:00:00 6.3 13 Noroeste 31 Noroeste 2.4 911 -1.1 93
2019-04-18 14:00:00 6.1 18 Noroeste 34 Noroeste 0.5 911.8 -0.6 93
2019-04-18 13:00:00 6.8 13 Noroeste 31 Noroeste 1.4 912.5 0 84
2019-04-18 12:00:00 9.9 11 Sudeste 29 Sudeste 0 912.1 0.8 76
2019-04-18 11:00:00 10 18 Sudeste 30 Sudeste 0 912.4 0.9 77
2019-04-18 10:00:00 8.9 18 Este 36 Este 0 912.5 1.2 81
2019-04-18 09:00:00 8 21 Sudeste 39 Este 0 911.3 0.4 81
2019-04-18 08:00:00 8 9 Sudeste 19 Sudeste 0 911.5 -0.3 81
2019-04-18 07:00:00 8 0 Calma 15 Nordeste 0 911.3 -1 78
2019-04-18 06:00:00 7.8 9 Este 21 Este 0 910.9 -2.1 81
2019-04-18 05:00:00 7.7 11 Este 23 Este 0 911.8 -2.7 84
2019-04-18 04:00:00 7.8 10 Este 27 Este 0 912.3 -1.5 85
2019-04-18 03:00:00 8 21 Este 30 Sudeste 0 913 -1.1 85
2019-04-18 02:00:00 8.3 16 Sudeste 44 Este 0 914.5 0.4 85
2019-04-18 01:00:00 8.6 28 Este 37 Este 0 913.8 0.5 84
2019-04-18 00:00:00 8.7 28 Sudeste 36 Sudeste 0 914.1 2.1 84
2019-04-17 23:00:00 9.3 16 Este 23 Este 0 914.1 1.9 83
2019-04-17 22:00:00 9.7 13 Sudeste 30 Sudeste 0 913.3 1.3 82
2019-04-17 21:00:00 10.4 21 Sudeste 39 Sudeste 0 912 -0.1 76
2019-04-17 20:00:00 13 25 Sudeste 42 Sudeste 0 912.2 -0.2 60
2019-04-17 19:00:00 15.4 31 Sudeste 45 Sudeste 0 912 -1.1 42
2019-04-17 18:00:00 17.3 29 Sudeste 45 Sudeste 0 912.1 -1.8 36
2019-04-17 17:00:00 17.6 30 Sur 45 Sur 0 912.4 -2.2 35
2019-04-17 16:00:00 18.2 29 Sur 46 Sur 0 913.1 -1.9 34
2019-04-17 15:00:00 18.2 30 Sudeste 49 Sur 0 913.9 -1.3 35
2019-04-17 14:00:00 17.3 32 Sur 48 Sur 0 914.6 -0.9 37
2019-04-17 13:00:00 16.7 31 Sur 44 Sur 0 915 -0.1 42
2019-04-17 12:00:00 14.1 31 Sur 42 Sudeste 0 915.2 0.2 51
2019-04-17 11:00:00 12.1 28 Sur 40 Sudeste 0 915.5 0.3 60
2019-04-17 10:00:00 9.5 26 Sudeste 40 Sudeste 0 915.1 0.2 74
2019-04-17 09:00:00 7.6 26 Sudeste 39 Sudeste 0 915 -0.2 84
2019-04-17 08:00:00 7.4 22 Sudeste 38 Sur 0 915.2 0.2 86
2019-04-17 07:00:00 7.3 27 Sur 38 Sur 0 914.9 -0.6 87
2019-04-17 06:00:00 7.2 24 Sudeste 35 Sur 0 915.2 -0.9 90
2019-04-17 05:00:00 7.1 25 Sur 36 Sudeste 0 915 -1.3 90
2019-04-17 04:00:00 7.1 22 Sudeste 33 Sudeste 0 915.5 -1 90
2019-04-17 03:00:00 7.1 21 Sudeste 33 Sudeste 0 916.1 -0.6 89
2019-04-17 02:00:00 6.8 23 Sudeste 36 Sudeste 0 916.3 -0.5 86
2019-04-17 01:00:00 7.6 24 Sudeste 38 Sudeste 0 916.5 0 81
2019-04-17 00:00:00 8.1 28 Sudeste 37 Sudeste 0 916.7 0.7 80
2019-04-16 23:00:00 9 22 Sudeste 40 Sudeste 0 916.8 1.2 76
2019-04-16 22:00:00 10.2 31 Sudeste 41 Sudeste 0 916.5 1 71
2019-04-16 21:00:00 12.1 27 Sudeste 45 Sudeste 0 916 0.2 63
2019-04-16 20:00:00 16.2 30 Sudeste 41 Sudeste 0 915.6 -0.7 43
2019-04-16 19:00:00 19.6 19 Sudeste 29 Sudeste 0 915.5 -0.9 25
2019-04-16 18:00:00 21.1 12 Sur 39 Sudoeste 0 915.8 -1.1 25
2019-04-16 17:00:00 21.2 17 Sur 32 Sur 0 916.3 -1.2 24
2019-04-16 16:00:00 21.8 13 Sur 26 Sur 0 916.4 -1.6 26
2019-04-16 15:00:00 20.7 9 Sur 20 Sur 0 916.9 -1.5 28
2019-04-16 14:00:00 19.3 6 Sur 19 Sur 0 917.5 -0.6 33
2019-04-16 13:00:00 17.3 4 Sur 16 Sudoeste 0 918 0.6 42
2019-04-16 12:00:00 15.2 5 Sur 16 Sudoeste 0 918.4 1.3 49
2019-04-16 11:00:00 12.7 4 Oeste 17 Norte 0 918.1 1.7 60
2019-04-16 10:00:00 9.5 10 Norte 23 Noroeste 0 917.4 1.4 72
2019-04-16 09:00:00 7.9 15 Norte 23 Norte 0 917.1 1.4 82
2019-04-16 08:00:00 6.4 9 Noroeste 14 Noroeste 0 916.4 0.5 87
2019-04-16 07:00:00 6.7 8 Noroeste 26 Oeste 0 916 0.2 84
2019-04-16 06:00:00 7.4 16 Noroeste 27 Noroeste 0 915.7 0 79
2019-04-16 05:00:00 8.1 16 Noroeste 25 Noroeste 0 915.9 0 74
2019-04-16 04:00:00 9.3 11 Noroeste 27 Norte 0 915.8 -0.1 71
2019-04-16 03:00:00 10.1 16 Norte 24 Norte 0 915.7 0.3 71
2019-04-16 02:00:00 9.9 17 Norte 31 Norte 0 915.9 0.9 70
2019-04-16 01:00:00 11.2 18 Noroeste 46 Noroeste 0 915.9 1.6 62
2019-04-16 00:00:00 13.9 23 Noroeste 38 Noroeste 0 915.4 1.7 47
2019-04-15 23:00:00 12.9 6 Oeste 15 Oeste 0 915 2.2 71
2019-04-15 22:00:00 14.4 4 Sur 19 Sudoeste 0 914.3 1.8 64
2019-04-15 21:00:00 16.9 3 Sudoeste 18 Sudoeste 0 913.7 1.3 48
2019-04-15 20:00:00 19.5 11 Sudoeste 24 Sur 0 912.8 0.2 41
2019-04-15 19:00:00 21.5 13 Sudoeste 24 Sur 0 912.5 -0.4 35
2019-04-15 18:00:00 23.9 10 Sudoeste 26 Sudoeste 0 912.4 -0.9 32
2019-04-15 17:00:00 24.6 14 Sudoeste 25 Sudoeste 0 912.6 -1.1 31
2019-04-15 16:00:00 23.5 13 Sudoeste 32 Sudoeste 0 912.9 -1.5 32
2019-04-15 15:00:00 22.1 18 Sur 33 Sur 0 913.3 -1.1 33
2019-04-15 14:00:00 22.2 20 Sur 37 Sudoeste 0 913.7 -1.2 33
2019-04-15 13:00:00 21.4 19 Sur 38 Sudeste 0 914.4 -0.7 33
2019-04-15 12:00:00 19.8 20 Sur 31 Sur 0 914.4 -0.4 44
2019-04-15 11:00:00 18.9 15 Sudeste 24 Sudeste 0 914.9 0.4 52
2019-04-15 10:00:00 16.1 13 Sudeste 22 Este 0 915.1 0.7 62
2019-04-15 09:00:00 11.9 9 Este 20 Sudeste 0 914.8 0.1 74
2019-04-15 08:00:00 10.7 5 Este 10 Sudeste 0 914.5 -0.3 74
2019-04-15 07:00:00 11.2 9 Sudeste 12 Este 0 914.4 -0.9 72
2019-04-15 06:00:00 11.7 5 Este 9 Este 0 914.7 -1.1 70
2019-04-15 05:00:00 12.1 0 Calma 5 Norte 0 914.8 -1.5 69
2019-04-15 04:00:00 11.6 2 Norte 12 Sudeste 0 915.3 -1.3 70
2019-04-15 03:00:00 12.3 0 Calma -- -- 0 915.8 -0.7 68
2019-04-15 02:00:00 12 0 Calma 12 Norte 0 916.3 -0.2 66
2019-04-15 01:00:00 12.7 10 Norte 18 Noroeste 0 916.6 0.4 62
2019-04-15 00:00:00 13.2 9 Norte 19 Noroeste 0 916.5 0.7 59
2019-04-14 23:00:00 14.1 12 Norte 14 Norte 0 916.5 1.1 55
2019-04-14 22:00:00 14.7 10 Norte 18 Norte 0 916.2 0.9 52
2019-04-14 21:00:00 16.7 12 Noroeste 22 Noroeste 0 915.8 0.4 45
2019-04-14 20:00:00 19.2 15 Noroeste 27 Noroeste 0 915.4 -0.3 39
2019-04-14 19:00:00 20.4 18 Noroeste 31 Noroeste 0 915.3 -1.2 38
2019-04-14 18:00:00 20.9 18 Noroeste 32 Noroeste 0 915.4 -1.7 36
2019-04-14 17:00:00 21.2 15 Noroeste 32 Noroeste 0 915.7 -1.8 36
2019-04-14 16:00:00 20.3 17 Noroeste 37 Oeste 0 916.5 -1.5 36
2019-04-14 15:00:00 19.2 15 Oeste 31 Noroeste 0 917.1 -1 37
2019-04-14 14:00:00 18 16 Noroeste 30 Oeste 0 917.5 -0.6 39
2019-04-14 13:00:00 16.6 18 Noroeste 30 Noroeste 0 918 0.4 46
2019-04-14 12:00:00 15 14 Noroeste 27 Noroeste 0 918.1 1 50
2019-04-14 11:00:00 13.3 12 Noroeste 24 Oeste 0 918.1 1.4 53
2019-04-14 10:00:00 11.1 16 Noroeste 24 Oeste 0 917.6 1 57
2019-04-14 09:00:00 9.1 12 Norte 20 Noroeste 0 917.1 0.5 59
2019-04-14 08:00:00 8.4 14 Noroeste 27 Noroeste 0 916.7 0 59
2019-04-14 07:00:00 8.5 19 Noroeste 28 Noroeste 0 916.6 -0.3 59
2019-04-14 06:00:00 8.5 16 Noroeste 28 Noroeste 0 916.6 -0.4 56
2019-04-14 05:00:00 9.3 14 Noroeste 24 Noroeste 0 916.7 -0.8 54
2019-04-14 04:00:00 8.8 17 Noroeste 23 Noroeste 0 916.9 -1 56
2019-04-14 03:00:00 9 15 Noroeste 26 Oeste 0 917 -1 54
2019-04-14 02:00:00 9.7 18 Noroeste 23 Noroeste 0 917.5 -0.4 51
2019-04-14 01:00:00 10.4 13 Noroeste 23 Noroeste 0 917.9 0.3 44
2019-04-14 00:00:00 11.3 13 Noroeste 20 Noroeste 0 918 0.9 30
2019-04-13 23:00:00 12.2 13 Noroeste 23 Noroeste 0 917.9 1.1 26
2019-04-13 22:00:00 12.8 14 Noroeste 23 Norte 0 917.6 0.8 25
2019-04-13 21:00:00 13.6 15 Noroeste 27 Noroeste 0 917.1 0.2 24
2019-04-13 20:00:00 15.7 15 Noroeste 26 Noroeste 0 916.8 -0.2 22
2019-04-13 19:00:00 17.3 14 Noroeste 32 Norte 0 916.8 -0.6 22
2019-04-13 18:00:00 17.2 18 Noroeste 31 Norte 0 916.9 -0.8 23
2019-04-13 17:00:00 17.5 18 Noroeste 37 Noroeste 0 917 -0.9 24
2019-04-13 16:00:00 16.7 19 Noroeste 39 Oeste 0 917.4 -0.9 25
2019-04-13 15:00:00 15.7 17 Noroeste 38 Noroeste 0 917.7 -0.6 28
2019-04-13 14:00:00 14.5 17 Norte 40 Noroeste 0 917.9 -0.1 29
2019-04-13 13:00:00 14.4 20 Noroeste 44 Oeste 0 918.3 0.9 33
2019-04-13 12:00:00 12.6 14 Noroeste 30 Noroeste 0 918.3 1.7 42
2019-04-13 11:00:00 10.2 12 Noroeste 23 Norte 0 918 1.8 46
2019-04-13 10:00:00 7.8 14 Norte 24 Noroeste 0 917.4 1.8 49
2019-04-13 09:00:00 6.3 13 Norte 21 Norte 0 916.6 1.3 55
2019-04-13 08:00:00 4.4 0 Calma 6 Norte 0 916.2 0.6 55
2019-04-13 07:00:00 4.5 0 Calma 17 Norte 0 915.6 -0.1 54
2019-04-13 06:00:00 5.4 13 Norte 17 Norte 0 915.3 -0.7 53
2019-04-13 05:00:00 5.1 8 Norte 16 Noroeste 0 915.6 -0.7 53
2019-04-13 04:00:00 5.5 4 Noroeste 9 Noroeste 0 915.7 -0.6 52
2019-04-13 03:00:00 5.7 0 Calma 5 Norte 0 916 -0.1 50
2019-04-13 02:00:00 6.8 6 Norte 10 Norte 0 916.3 0.2 47
2019-04-13 01:00:00 6.7 6 Norte 16 Norte 0 916.3 0.6 46
2019-04-13 00:00:00 8.7 10 Noroeste 18 Norte 0 916.1 0.6 40
2019-04-12 23:00:00 9.2 12 Noroeste 19 Noroeste 0 916.1 0.7 39
2019-04-12 22:00:00 9.6 12 Noroeste 23 Noroeste 0 915.7 0.2 39
2019-04-12 21:00:00 10.4 14 Noroeste 28 Noroeste 0 915.5 0.1 37
2019-04-12 20:00:00 12.7 18 Noroeste 38 Noroeste 0 915.4 0 33
2019-04-12 19:00:00 14.6 21 Noroeste 44 Noroeste 0 915.5 -0.4 31
2019-04-12 18:00:00 13.6 19 Noroeste 44 Norte 0 915.4 -0.6 30
2019-04-12 17:00:00 13.4 22 Noroeste 45 Noroeste 0 915.4 -0.5 31
2019-04-12 16:00:00 13.7 21 Noroeste 46 Norte 0 915.9 -0.1 33
2019-04-12 15:00:00 13 19 Noroeste 41 Noroeste 0 916 -0.1 36
2019-04-12 14:00:00 11.5 22 Noroeste 37 Noroeste 0 915.9 0.7 43
2019-04-12 13:00:00 9.5 21 Noroeste 37 Noroeste 0 916 1.3 48
2019-04-12 12:00:00 7.8 22 Noroeste 37 Norte 0 916.1 1.6 51
2019-04-12 11:00:00 6 23 Noroeste 40 Norte 0 915.2 1.2 60
2019-04-12 10:00:00 4.5 18 Noroeste 37 Noroeste 0 914.7 1.1 71
2019-04-12 09:00:00 2.1 22 Noroeste 38 Noroeste 0 914.5 0.9 81
2019-04-12 08:00:00 1 22 Norte 35 Noroeste 0 914 -0.4 84
2019-04-12 07:00:00 0.9 18 Norte 28 Norte 0 913.6 -1.4 83
2019-04-12 06:00:00 1.4 12 Norte 15 Norte 0 913.6 -1.6 82
2019-04-12 05:00:00 2.1 10 Norte 13 Norte 0 914.4 -1.3 75
2019-04-12 04:00:00 3.6 8 Norte 13 Norte 0 915 -0.9 66
2019-04-12 03:00:00 5 8 Nordeste 18 Nordeste 0 915.2 -0.5 59
2019-04-12 02:00:00 5.4 7 Nordeste 19 Nordeste 0 915.7 0.1 55
2019-04-12 01:00:00 6.4 12 Nordeste 22 Norte 0 915.9 0.3 49
2019-04-12 00:00:00 7.4 12 Norte 20 Norte 0 915.7 0.6 43
2019-04-11 23:00:00 8 9 Noroeste 17 Noroeste 0 915.6 0.8 38
2019-04-11 22:00:00 9.3 10 Norte 18 Norte 0 915.6 0.8 36
2019-04-11 21:00:00 10.1 13 Noroeste 24 Noroeste 0 915.1 0.3 34
2019-04-11 20:00:00 11.9 15 Noroeste 35 Noroeste 0 914.8 -- 30
2019-04-11 19:00:00 12.5 20 Noroeste 45 Noroeste 0 914.8 -0.1 29
2019-04-11 18:00:00 13.1 23 Noroeste 42 Oeste 0 914.8 -0.4 32
2019-04-11 17:00:00 -- -- -- -- -- -- -- -- --
2019-04-11 16:00:00 12.6 19 Noroeste 35 Noroeste 0 914.9 -0.6 36
2019-04-11 15:00:00 11.3 18 Norte 36 Norte 0 915.2 0 41
2019-04-11 14:00:00 10.5 16 Norte 35 Norte 0 915.1 0.4 45
2019-04-11 13:00:00 9 18 Noroeste 37 Noroeste 0 915.5 1.4 52
2019-04-11 12:00:00 7.5 22 Norte 35 Norte 0 915.2 1.7 55
2019-04-11 11:00:00 6.2 21 Norte 32 Norte 0 914.7 1.6 65
2019-04-11 10:00:00 3.6 18 Noroeste 36 Norte 0 914.1 -- 85
2019-04-11 09:00:00 1.2 18 Norte 58 Norte 0 913.5 0.6 94
2019-04-11 08:00:00 0.7 15 Norte 26 Norte 0 913.1 0.3 94
2019-04-11 07:00:00 -- -- -- -- -- -- -- -- --
2019-04-11 06:00:00 1.7 14 Norte 21 Norte 0 912.9 -0.3 94
2019-04-11 05:00:00 1.8 10 Norte 18 Norte 0 912.8 -0.7 94
2019-04-11 04:00:00 2.3 12 Norte 19 Norte 0 912.9 -- 92
2019-04-11 03:00:00 3 13 Noroeste 20 Noroeste 0 913.2 -0.2 91
2019-04-11 02:00:00 2.9 11 Norte 22 Norte 0 913.5 0.2 90
2019-04-11 01:00:00 -- -- -- -- -- -- -- -- --
2019-04-11 00:00:00 3.8 13 Noroeste 26 Noroeste 0 913.4 1.1 87
2019-04-10 23:00:00 3.9 13 Noroeste 27 Noroeste 0 913.3 1.3 84
2019-04-10 22:00:00 -- 17 Noroeste 25 Noroeste 0 -- -- --
2019-04-10 21:00:00 5.2 18 Noroeste 30 Noroeste 0 912.3 0.8 74
2019-04-10 20:00:00 7.1 15 Noroeste 35 Noroeste 0 912 0.6 55
2019-04-10 19:00:00 8.1 22 Norte 41 Norte 0 911.7 0.1 49
2019-04-10 18:00:00 8.8 21 Norte 37 Norte 0 911.5 -0.2 49
2019-04-10 17:00:00 9.9 13 Oeste 47 Oeste 0 911.4 -0.3 49
2019-04-10 16:00:00 8.6 26 Noroeste 49 Noroeste 0 911.6 -0.6 45
2019-04-10 15:00:00 10.1 22 Noroeste 49 Noroeste 0 911.7 -0.5 46
2019-04-10 14:00:00 8.3 23 Noroeste 48 Norte 0 911.7 -0.5 55
2019-04-10 13:00:00 8.5 27 Noroeste 48 Noroeste 0 912.2 0.6 61
2019-04-10 12:00:00 6.6 26 Noroeste 48 Norte 0 912.2 0.5 68
2019-04-10 11:00:00 5.9 27 Noroeste 51 Noroeste 0 912.2 1.2 75
2019-04-10 10:00:00 5.5 29 Noroeste 47 Noroeste 0 911.6 0.6 82
2019-04-10 09:00:00 4.7 24 Noroeste 37 Oeste 0.1 911.7 0.5 90
2019-04-10 08:00:00 4 23 Noroeste 35 Noroeste 0 911 -0.4 93
2019-04-10 07:00:00 4.1 24 Noroeste 36 Noroeste 0 911 -0.4 93
2019-04-10 06:00:00 4.2 18 Noroeste 27 Noroeste 0 911.2 -0.5 93
2019-04-10 05:00:00 4.5 17 Noroeste 49 Noroeste 0.9 911.4 -0.6 93
2019-04-10 04:00:00 4.8 23 Noroeste 39 Noroeste 0.2 911.4 -0.8 89
2019-04-10 03:00:00 4.3 19 Noroeste 49 Noroeste 0.3 911.7 -0.4 87
2019-04-10 02:00:00 5.3 19 Noroeste 35 Noroeste 0 912 -0.1 84
2019-04-10 01:00:00 5.5 23 Noroeste 36 Noroeste 0 912.2 0.1 84
2019-04-10 00:00:00 5.1 16 Noroeste 27 Noroeste 0 912.1 -0.1 86
2019-04-09 23:00:00 5.2 14 Noroeste 32 Noroeste 0 912.1 0.7 84
2019-04-09 22:00:00 5 24 Noroeste 43 Noroeste 0.7 912.1 0.8 82
2019-04-09 21:00:00 5.5 23 Norte 43 Norte 0 912.2 0.5 74
2019-04-09 20:00:00 8.9 24 Noroeste 45 Oeste 0 911.4 -0.5 61
2019-04-09 19:00:00 8.5 22 Oeste 51 Oeste 0 911.3 -0.4 65
2019-04-09 18:00:00 7.7 27 Noroeste 56 Oeste 0 911.7 -0.8 66
2019-04-09 17:00:00 9.9 34 Oeste 60 Oeste 0 911.9 -0.6 57
2019-04-09 16:00:00 9.3 26 Noroeste 45 Oeste 0.1 911.7 -1 53
2019-04-09 15:00:00 7.3 22 Noroeste 48 Oeste 0.5 912.5 -0.7 68
2019-04-09 14:00:00 8.7 23 Noroeste 46 Noroeste 0.1 912.5 -0.5 65
2019-04-09 13:00:00 8.3 31 Noroeste 46 Noroeste 0 912.7 0.2 58
2019-04-09 12:00:00 6.9 27 Noroeste 46 Oeste 0 913.2 0.9 65
2019-04-09 11:00:00 7.5 24 Noroeste 55 Noroeste 0 913 1.1 69
2019-04-09 10:00:00 5.4 31 Noroeste 45 Noroeste 0 912.5 0.9 80
2019-04-09 09:00:00 3.8 18 Noroeste 36 Noroeste 0 912.3 0.3 88
2019-04-09 08:00:00 3.5 19 Noroeste 33 Noroeste 0 911.9 0 89
2019-04-09 07:00:00 4 20 Noroeste 34 Noroeste 0 911.6 -0.5 88
2019-04-09 06:00:00 4.9 18 Noroeste 35 Noroeste 0 912 -0.3 86
2019-04-09 05:00:00 5.1 19 Noroeste 35 Noroeste 0 911.9 -0.5 85
2019-04-09 04:00:00 5.3 18 Noroeste 31 Noroeste 0 912.1 -0.4 87
2019-04-09 03:00:00 6 19 Noroeste 30 Oeste 0 912.3 0.2 86
2019-04-09 02:00:00 6.4 19 Noroeste 31 Oeste 0 912.4 -0.6 82
2019-04-09 01:00:00 6.7 12 Oeste 23 Oeste 0 912.5 0 89
2019-04-09 00:00:00 6.5 5 Noroeste 44 Noroeste 1 912.1 0 89
2019-04-08 23:00:00 7.8 20 Noroeste 38 Noroeste 0.2 913 0.7 87
2019-04-08 22:00:00 8.8 12 Oeste 26 Oeste 0 912.5 0.2 82
2019-04-08 21:00:00 8.3 8 Oeste 22 Oeste 0 912.1 -0.8 84
2019-04-08 20:00:00 9.2 14 Oeste 29 Noroeste 0 912.3 -0.2 82
2019-04-08 19:00:00 9 17 Noroeste 39 Noroeste 0.7 912.3 -0.6 87
2019-04-08 18:00:00 10.4 26 Noroeste 42 Oeste 0 912.9 0.1 74
2019-04-08 17:00:00 12 21 Sudoeste 31 Sudoeste 0 912.5 -1.1 79
2019-04-08 16:00:00 9.3 17 Noroeste 51 Noroeste 0.9 912.9 -0.7 88
2019-04-08 15:00:00 13.7 22 Noroeste 42 Noroeste 0 912.8 -1 52
2019-04-08 14:00:00 12.1 24 Noroeste 37 Noroeste 0 913.6 0 55
2019-04-08 13:00:00 10.7 19 Noroeste 38 Noroeste 0 913.6 0.4 63
2019-04-08 12:00:00 9.6 23 Noroeste 43 Noroeste 0 913.8 0.7 67
2019-04-08 11:00:00 9.4 25 Noroeste 36 Noroeste 0.1 913.6 0.9 74
2019-04-08 10:00:00 8.5 21 Noroeste 32 Noroeste 0 913.2 0.8 82
2019-04-08 09:00:00 7.4 12 Oeste 24 Oeste 0 913.1 0.7 91
2019-04-08 08:00:00 6.9 12 Noroeste 20 Noroeste 0.1 912.7 0.3 90
2019-04-08 07:00:00 7 15 Noroeste 31 Oeste 0 912.4 -0.3 90
2019-04-08 06:00:00 7 16 Oeste 27 Oeste 0 912.4 -0.6 91
2019-04-08 05:00:00 6.8 8 Oeste 20 Oeste 0 912.4 -0.9 91
2019-04-08 04:00:00 6.5 0 Calma 3 Sur 0.4 912.7 -1 89
2019-04-08 03:00:00 6.5 0 Calma -- -- 0 913 -0.7 88
2019-04-08 02:00:00 6.4 0 Calma 7 Sudoeste 0 913.3 -0.6 87
2019-04-08 01:00:00 6.4 5 Oeste 12 Noroeste 0 913.7 0 86
2019-04-08 00:00:00 6.3 8 Noroeste 30 Oeste 0 913.7 0.6 84
2019-04-07 23:00:00 7.2 17 Noroeste 24 Noroeste 0 913.9 1.1 72
2019-04-07 22:00:00 7.6 15 Noroeste 27 Noroeste 0 913.7 1.4 62
2019-04-07 21:00:00 7.8 16 Noroeste 33 Noroeste 0 913.1 1.4 56
2019-04-07 20:00:00 8.6 24 Noroeste 41 Noroeste 0 912.8 1.7 51
2019-04-07 19:00:00 9.4 24 Noroeste 48 Noroeste 0 912.3 1.2 46
2019-04-07 18:00:00 9.9 26 Noroeste 55 Noroeste 0 911.7 0.6 45
2019-04-07 17:00:00 11.1 28 Noroeste 52 Noroeste 0 911.1 0.2 43
2019-04-07 16:00:00 9.4 31 Noroeste 50 Oeste 0 911.1 0.6 44
2019-04-07 15:00:00 9.3 31 Noroeste 51 Noroeste 0 911.1 1.2 46
2019-04-07 14:00:00 8.4 27 Norte 51 Norte 0 910.9 2 46
2019-04-07 13:00:00 7.4 19 Noroeste 55 Noroeste 0 910.5 2.4 59
2019-04-07 12:00:00 6 24 Noroeste 55 Noroeste 0 909.9 2.9 66
2019-04-07 11:00:00 5.1 33 Noroeste 68 Noroeste 0 908.9 2.7 72
2019-04-07 10:00:00 3.6 30 Noroeste 52 Oeste 0 908.1 2.5 87
2019-04-07 09:00:00 2.9 23 Noroeste 44 Noroeste 0 907 1.7 94
2019-04-07 08:00:00 2.7 15 Noroeste 30 Oeste 0.2 906.2 1.2 94
2019-04-07 07:00:00 2.5 15 Noroeste 44 Noroeste 0.4 905.6 0.6 94
2019-04-07 06:00:00 1.8 28 Noroeste 42 Noroeste 0.5 905.3 0.4 89
2019-04-07 05:00:00 2.8 21 Noroeste 44 Noroeste 0 905 0.1 83
2019-04-07 04:00:00 2.6 22 Noroeste 34 Noroeste 0 905 -0.2 83
2019-04-07 03:00:00 2.4 22 Noroeste 39 Noroeste 0 904.9 -0.2 83
2019-04-07 02:00:00 2.6 26 Noroeste 40 Noroeste 0 904.9 -0.1 82
2019-04-07 01:00:00 2.8 26 Noroeste 47 Noroeste 0 905.2 0.4 80
2019-04-07 00:00:00 3.2 28 Noroeste 47 Noroeste 0 905.1 0.8 78
2019-04-06 23:00:00 2.7 22 Noroeste 36 Noroeste 0 905 0.7 82
2019-04-06 22:00:00 3.2 23 Oeste 42 Oeste 0 904.8 0.9 78
2019-04-06 21:00:00 3.6 23 Oeste 37 Oeste 0 904.3 1 77
2019-04-06 20:00:00 4.6 18 Oeste 50 Oeste 0.1 904.3 0.6 72
2019-04-06 19:00:00 5.7 28 Oeste 68 Oeste 0 903.9 -0.1 65
2019-04-06 18:00:00 7.1 30 Oeste 47 Oeste 0 903.3 -0.9 68
2019-04-06 17:00:00 5.5 19 Sudoeste 35 Sudoeste 0 903.7 -0.3 80
2019-04-06 16:00:00 3.6 20 Oeste 49 Noroeste 2 904 -0.1 84
2019-04-06 15:00:00 5.4 30 Oeste 50 Oeste 0.5 904.2 0.4 62
2019-04-06 14:00:00 6.3 22 Oeste 54 Noroeste 0 904 0.6 72
2019-04-06 13:00:00 8 25 Oeste 50 Oeste 0 904.1 1.1 59
2019-04-06 12:00:00 5.9 27 Oeste 58 Noroeste 0 903.8 1.2 68
2019-04-06 11:00:00 4.6 33 Noroeste 55 Noroeste 0 903.4 1.2 75
2019-04-06 10:00:00 3.9 33 Noroeste 51 Noroeste 0 903 1.6 78
2019-04-06 09:00:00 2.4 26 Noroeste 45 Noroeste 0 902.6 1.8 82
2019-04-06 08:00:00 1.9 22 Noroeste 39 Noroeste 0 902.2 1.5 85
2019-04-06 07:00:00 1.8 22 Noroeste 43 Noroeste 0 901.4 0.8 82
2019-04-06 06:00:00 1.9 25 Noroeste 47 Noroeste 0 900.8 -0.2 84
2019-04-06 05:00:00 2.3 23 Noroeste 41 Noroeste 0 900.7 -0.1 85
2019-04-06 04:00:00 1.9 25 Noroeste 37 Oeste 0 900.6 -1 86
2019-04-06 03:00:00 2 17 Noroeste 32 Noroeste 0 901 -0.2 86
2019-04-06 02:00:00 1.8 24 Noroeste 41 Noroeste 0 900.8 -0.2 82
2019-04-06 01:00:00 2.3 16 Noroeste 30 Noroeste 0 901.6 1.2 78
2019-04-06 00:00:00 2 22 Noroeste 32 Noroeste 0 901.2 1.5 81
2019-04-05 23:00:00 1.9 15 Noroeste 24 Noroeste 0 901 0.7 88
2019-04-05 22:00:00 2.3 14 Noroeste 28 Noroeste 0 900.4 1.7 86
2019-04-05 21:00:00 2.7 14 Oeste 38 Oeste 0 899.7 1.6 82
2019-04-05 20:00:00 2.2 34 Noroeste 66 Oeste 0 900.3 0.9 81
2019-04-05 19:00:00 6 19 Oeste 36 Oeste 0.1 898.7 -0.6 84
2019-04-05 18:00:00 3.5 7 Noroeste 47 Noroeste 1 898.1 -2.3 90
2019-04-05 17:00:00 6.1 12 Oeste 22 Sur 0 899.4 -1.2 81
2019-04-05 16:00:00 6 15 Sur 32 Oeste 0.5 899.3 -1.9 87
2019-04-05 15:00:00 5.1 19 Oeste 44 Oeste 1.5 900.4 -1.2 83
2019-04-05 14:00:00 5.6 15 Noroeste 33 Noroeste 1.4 900.6 -0.7 84
2019-04-05 13:00:00 10.3 7 Sudoeste 21 Sudoeste 0 901.2 0.2 45
2019-04-05 12:00:00 10.6 9 Sudoeste 20 Sudoeste 0 901.6 0.5 46
2019-04-05 11:00:00 8.3 14 Sudoeste 26 Sudoeste 0 901.3 0.2 52
2019-04-05 10:00:00 7.5 6 Sudoeste 19 Oeste 0 901 0.2 61
2019-04-05 09:00:00 5.6 6 Sudoeste 14 Sudoeste 0 901.1 0.4 73
2019-04-05 08:00:00 4.3 7 Sudoeste 17 Sudoeste 0 901.1 0.2 75
2019-04-05 07:00:00 4.1 9 Sudoeste 15 Sudoeste 0 900.8 -0.5 75
2019-04-05 06:00:00 4.1 10 Sudoeste 22 Sudoeste 0 900.7 -0.8 81
2019-04-05 05:00:00 4.1 13 Sudoeste 22 Sudoeste 0 900.9 -0.7 88
2019-04-05 04:00:00 4.4 11 Sudoeste 16 Sur 0 901.3 -0.5 90
2019-04-05 03:00:00 4.7 9 Sur 21 Sur 0 901.5 -0.3 89
2019-04-05 02:00:00 4.9 10 Sur 25 Sur 0 901.6 -0.5 88
2019-04-05 01:00:00 5.1 10 Sur 23 Sur 0 901.8 -0.2 85
2019-04-05 00:00:00 5.5 8 Sudeste 19 Sudeste 0 901.8 -0.1 81
2019-04-04 23:00:00 6.1 12 Sur 29 Sur 0 902.1 0 78
2019-04-04 22:00:00 6.7 18 Sur 35 Sur 0 902 -0.3 74
2019-04-04 21:00:00 8.5 20 Sur 33 Sur 0 901.9 -0.7 56
2019-04-04 20:00:00 12 2 Sudeste 10 Noroeste 0 902.1 -0.8 31
2019-04-04 19:00:00 13.7 2 Noroeste 14 Sudoeste 0 902.3 -1.2 29
2019-04-04 18:00:00 13.7 6 Oeste 20 Sudoeste 0 902.6 -1.4 29
2019-04-04 17:00:00 12.2 5 Noroeste 21 Oeste 0 902.9 -1.4 30
2019-04-04 16:00:00 11.2 8 Noroeste 22 Noroeste 0 903.5 -0.8 31
2019-04-04 15:00:00 11 5 Oeste 24 Noroeste 0 904 -0.2 32
2019-04-04 14:00:00 9.2 10 Noroeste 24 Oeste 0 904.3 0.6 31
2019-04-04 13:00:00 8.1 12 Noroeste 24 Noroeste 0 904.3 1.2 30
2019-04-04 12:00:00 6.9 13 Norte 25 Noroeste 0 904.2 1.9 35
2019-04-04 11:00:00 5.6 15 Norte 25 Norte 0 903.7 2.3 42
2019-04-04 10:00:00 4.3 15 Norte 24 Norte 0 903.1 1.8 49
2019-04-04 09:00:00 2.5 14 Norte 21 Norte 0 902.3 1.1 65
2019-04-04 08:00:00 0.5 13 Norte 16 Norte 0 901.4 0.5 77
2019-04-04 07:00:00 0.9 10 Norte 12 Norte 0 901.3 0.4 78
2019-04-04 06:00:00 1.4 0 Calma 8 Nordeste 0 901.2 -0.1 75
2019-04-04 05:00:00 1.9 5 Nordeste 16 Nordeste 0 900.9 -0.8 72
2019-04-04 04:00:00 2.7 11 Norte 15 Norte 0 900.9 -1.5 69
2019-04-04 03:00:00 3.5 8 Norte 12 Norte 0 901.3 -1.6 68
2019-04-04 02:00:00 4.1 8 Norte 12 Norte 0 901.7 -1.5 70
2019-04-04 01:00:00 5.3 8 Norte 12 Norte 0 902.4 -0.2 60
2019-04-04 00:00:00 7 8 Norte 14 Nordeste 0 902.9 0.9 52
2019-04-03 23:00:00 8.1 8 Norte 21 Norte 0 903.2 1.4 50
2019-04-03 22:00:00 9.1 8 Noroeste 35 Noroeste 0 902.6 0.4 43
2019-04-03 21:00:00 11 22 Noroeste 37 Noroeste 0 902 -0.8 36
2019-04-03 20:00:00 12.9 20 Noroeste 34 Noroeste 0 901.8 -1.5 35
2019-04-03 19:00:00 14.3 19 Oeste 39 Oeste 0 902.2 -1.9 40
2019-04-03 18:00:00 14.7 21 Oeste 39 Oeste 0 902.8 -2.4 40
2019-04-03 17:00:00 14.5 21 Oeste 44 Noroeste 0 903.3 -2.7 41
2019-04-03 16:00:00 15.7 24 Oeste 40 Noroeste 0 904.1 -2.6 39
2019-04-03 15:00:00 15.2 19 Oeste 41 Oeste 0 905.2 -2.5 43
2019-04-03 14:00:00 14 22 Oeste 40 Noroeste 0 906 -2.1 45
2019-04-03 13:00:00 13.8 24 Oeste 42 Oeste 0 906.7 -1.5 47
2019-04-03 12:00:00 12.8 22 Oeste 39 Oeste 0 907.7 -0.6 55
2019-04-03 11:00:00 11.7 17 Oeste 30 Oeste 0 908.1 -0.4 62
2019-04-03 10:00:00 9.8 15 Oeste 26 Oeste 0 908.2 -0.7 72
2019-04-03 09:00:00 7.3 4 Sudoeste 9 Sudoeste 0 908.3 -0.7 76
2019-04-03 08:00:00 6.4 0 Calma 16 Oeste 0 908.5 -1.2 79
2019-04-03 07:00:00 6.8 9 Noroeste 13 Noroeste 0 908.9 -1.5 79
2019-04-03 06:00:00 6.9 3 Noroeste 12 Oeste 0 909 -1.9 81
2019-04-03 05:00:00 7.2 8 Noroeste 11 Noroeste 0 909.7 -2.1 85
2019-04-03 04:00:00 7.2 7 Noroeste 11 Noroeste 0 910.4 -2.1 87
2019-04-03 03:00:00 6.7 5 Norte 6 Norte 0 910.9 -1.9 90
2019-04-03 02:00:00 6.9 2 Sudoeste 6 Noroeste 0.1 911.8 -1.1 87
2019-04-03 01:00:00 7.1 0 Calma 9 Sudoeste 0 912.5 -0.3 87
2019-04-03 00:00:00 7.8 0 Calma 9 Sur 0 912.8 0.4 85
2019-04-02 23:00:00 8.4 7 Oeste 20 Oeste 0 912.9 0.3 87
2019-04-02 22:00:00 8.5 3 Nordeste 29 Norte 3.6 912.8 0 86
2019-04-02 21:00:00 8.4 18 Norte 41 Norte 0.9 912.4 -0.5 80
2019-04-02 20:00:00 10.1 15 Nordeste -- -- -- 912.6 -0.7 65
2019-04-02 19:00:00 12.4 11 Noroeste 31 Noroeste 0 912.8 -0.9 49
2019-04-02 18:00:00 15 12 Noroeste 23 Noroeste 0 912.9 -1.1 44
2019-04-02 17:00:00 14.6 14 Noroeste 27 Noroeste 0 913.3 -1.7 46
2019-04-02 16:00:00 14.1 8 Oeste 26 Noroeste 0 913.7 -1.7 51
2019-04-02 15:00:00 11.5 14 Noroeste 24 Noroeste 0.4 914 -1.7 78
2019-04-02 14:00:00 13.1 11 Noroeste 26 Noroeste 0 915 -0.1 59
2019-04-02 13:00:00 12.1 12 Noroeste 24 Noroeste 0 915.4 0.6 65
2019-04-02 12:00:00 10.6 15 Noroeste 25 Noroeste 0 915.7 1.2 73
2019-04-02 11:00:00 9.1 11 Noroeste 21 Noroeste 0 915.1 1.2 84
2019-04-02 10:00:00 8.1 12 Noroeste 23 Noroeste 0 914.8 1.4 90
2019-04-02 09:00:00 7.5 3 Noroeste 17 Norte 0 914.5 0.6 91
2019-04-02 08:00:00 7.1 8 Norte 21 Norte 0 913.9 -0.2 92
2019-04-02 07:00:00 6.5 14 Norte 19 Norte 0 913.4 -0.8 93
2019-04-02 06:00:00 7.1 11 Norte 18 Noroeste 0 913.9 -0.6 93
2019-04-02 05:00:00 7.4 3 Oeste 9 Oeste 0.1 914.1 -0.6 93
2019-04-02 04:00:00 7.4 3 Oeste 11 Oeste 0 914.2 -0.8 93
2019-04-02 03:00:00 6.8 3 Sudoeste 12 Sur 0 914.5 -0.7 91
2019-04-02 02:00:00 6.9 6 Sur 9 Sur 0 914.7 0 91
2019-04-02 01:00:00 7.3 4 Sur 12 Sudoeste 0.3 915 0.6 91
2019-04-02 00:00:00 7 4 Sur 11 Sur 0 915.2 1.2 88
2019-04-01 23:00:00 7.1 9 Sudeste 14 Sudeste 0 914.7 1.3 88
2019-04-01 22:00:00 8.1 12 Sudeste 22 Sudeste 0 914.4 1.6 88
2019-04-01 21:00:00 8.5 9 Sudeste 13 Sudeste 0 914 0.7 85
2019-04-01 20:00:00 10 6 Sur 11 Sur 0 913.4 0 81
2019-04-01 19:00:00 9 5 Norte 10 Nordeste 1.8 912.8 -0.3 88
2019-04-01 18:00:00 8.3 8 Oeste 38 Noroeste 6.8 913.3 -0.2 80
2019-04-01 17:00:00 13.2 7 Sudeste 21 Sudeste 0 913.4 -0.4 59
2019-04-01 16:00:00 13.1 11 Este 17 Este 0 913.1 -0.9 78
2019-04-01 15:00:00 9.4 4 Nordeste 27 Oeste 3.7 913.5 -0.2 80
2019-04-01 14:00:00 14.1 14 Sudeste 26 Sudeste 0 913.8 0.3 61
2019-04-01 13:00:00 13 13 Sudeste 21 Sudeste 0 914 1.1 73
2019-04-01 12:00:00 9.5 10 Sudeste 13 Sudeste 0 913.7 1.7 88
2019-04-01 11:00:00 8.6 5 Sur 7 Sur 0 913.5 1.7 89
2019-04-01 10:00:00 8 5 Sur 13 Sudeste 0 912.9 1.5 90
2019-04-01 09:00:00 8 10 Este 16 Este 0 912 0.8 91
2019-04-01 08:00:00 7.2 4 Sudeste 7 Sudeste 0 911.8 0.6 91
2019-04-01 07:00:00 7.1 0 Calma 0 Calma 0.2 911.4 0.2 91
2019-04-01 06:00:00 7 0 Calma 6 Sudeste 0.4 911.2 -0.2 91
2019-04-01 05:00:00 7 5 Sudeste 8 Sudeste 0 911.2 0 90
2019-04-01 04:00:00 6.9 6 Sudeste 14 Sudeste 0 911.2 -0.1 90
2019-04-01 03:00:00 6.9 3 Sudeste 9 Sudeste 0 911.4 0.1 90
2019-04-01 02:00:00 6.9 3 Sudeste 23 Sudeste 0 911.2 0.1 90
2019-04-01 01:00:00 6.9 15 Sudeste 28 Este 0 911.3 0.4 90
2019-04-01 00:00:00 6.8 14 Este 27 Este 0 911.3 1.1 90
2019-03-31 23:00:00 6.8 14 Este 29 Este 0 911.1 1.1 90
2019-03-31 22:00:00 6.9 17 Este 37 Sudeste 0 910.9 0.9 90
2019-03-31 21:00:00 7 23 Este 38 Este 0 910.2 0.1 89
2019-03-31 20:00:00 7.8 24 Este 39 Este 0 910 -0.1 89
2019-03-31 19:00:00 7.8 27 Este 41 Este 0.1 910 -0.5 89
2019-03-31 18:00:00 8.4 24 Este 37 Este 0.5 910.1 -0.9 89
2019-03-31 17:00:00 8.5 21 Este 36 Sudeste 0 910.1 -1.2 89
2019-03-31 16:00:00 8.7 20 Este 32 Este 0.3 910.5 -1.2 91
2019-03-31 15:00:00 8.5 13 Este 31 Este 0.3 911 -1.1 93
2019-03-31 14:00:00 7.6 22 Este 35 Este 0.7 911.3 -0.7 93
2019-03-31 13:00:00 5.9 8 Nordeste 17 Nordeste 2 911.7 -0.4 93
2019-03-31 12:00:00 5.5 9 Nordeste 16 Nordeste 1.6 912.1 0.2 93
2019-03-31 11:00:00 5.6 9 Nordeste 15 Nordeste 1.4 912 0.3 93
2019-03-31 10:00:00 5.2 5 Nordeste 16 Nordeste 2.5 912.1 0.3 93
2019-03-31 09:00:00 4.6 8 Nordeste 15 Norte 3 911.9 -0.6 93
2019-03-31 08:00:00 4.4 6 Nordeste 17 Nordeste 1 911.7 -1.5 91
2019-03-31 07:00:00 4.1 6 Nordeste 29 Este 1.2 911.8 -2.2 90
2019-03-31 06:00:00 4.8 18 Este 28 Sudeste 0.8 912.5 -2.1 88
2019-03-31 05:00:00 4.8 15 Este 24 Sudeste 0 913.2 -1.4 80
2019-03-31 03:00:00 4.7 18 Sur 23 Sur 0 914.6 -0.6 69
2019-03-31 01:00:00 4.3 9 Sudeste 22 Este 0 914.6 -0.9 70
2019-03-31 00:00:00 4.4 16 Sudeste 29 Sudeste 0 914.9 -1.3 68
2019-03-30 23:00:00 5.2 21 Sudeste 36 Sudeste 0 915.2 -0.6 81
2019-03-30 22:00:00 7.2 19 Sudeste 33 Sudeste 0 915.5 -0.7 81
2019-03-30 21:00:00 7.8 21 Sudeste 36 Sudeste 0 916.2 0 73
2019-03-30 20:00:00 8.4 28 Sudeste 39 Sudeste 0 915.8 0 69
2019-03-30 19:00:00 10.9 27 Sudeste 38 Sudeste 0 916.2 0 52
2019-03-30 18:00:00 13.7 27 Sudeste 39 Sudeste 0 916.2 -0.7 38
2019-03-30 17:00:00 16 21 Sudeste 35 Sudeste 0 915.8 -2.2 33
2019-03-30 16:00:00 17.1 20 Sudeste 36 Sudeste 0 916.2 -2.4 31
2019-03-30 15:00:00 16.2 21 Sur 35 Sur 0 916.9 -2.6 30
2019-03-30 14:00:00 15.8 18 Sur 34 Sudeste 0 918 -1.7 30
2019-03-30 13:00:00 14.6 21 Sudeste 35 Sudeste 0 918.6 -0.8 34
2019-03-30 12:00:00 12.5 21 Sudeste 33 Sur 0 919.5 0.6 41
2019-03-30 11:00:00 10.9 19 Sudeste 36 Sur 0 919.7 1.3 47
2019-03-30 10:00:00 8.6 23 Sudeste 36 Sudeste 0 919.4 1.2 57
2019-03-30 09:00:00 6.2 24 Sudeste 34 Sudeste 0 918.9 1.1 74
2019-03-30 08:00:00 3.4 18 Sudeste 30 Sudeste 0 918.4 0.3 93
2019-03-30 07:00:00 1.9 16 Sudeste 24 Sudeste 0 918.2 -0.4 93
2019-03-30 06:00:00 1.1 13 Este 21 Sudeste 0 917.8 -1.4 93
2019-03-30 05:00:00 1.2 15 Sudeste 22 Sudeste 0 918.1 -1.7 93
2019-03-30 04:00:00 1.3 16 Sudeste 20 Sudeste 0 918.6 -1.8 93
2019-03-30 03:00:00 0.8 14 Sudeste 18 Sudeste 0 919.2 -1.6 92
2019-03-30 02:00:00 1.4 15 Sudeste 19 Sudeste 0 919.8 -1.6 91
2019-03-30 01:00:00 2.1 15 Sudeste 19 Sudeste 0 920.4 -1 89
2019-03-30 00:00:00 3 17 Sudeste 24 Sudeste 0 920.8 -0.4 85
2019-03-29 23:00:00 3.4 15 Sudeste 23 Sudeste 0 921.4 0.7 75
2019-03-29 22:00:00 5 21 Sudeste 29 Sudeste 0 921.4 0.5 68
2019-03-29 21:00:00 6.1 19 Sudeste 33 Sudeste 0 921.2 0.5 57
2019-03-29 20:00:00 8.1 28 Sudeste 39 Sudeste 0 920.7 0 58
2019-03-29 19:00:00 10.8 27 Sudeste 40 Sudeste 0 920.9 -0.2 48
2019-03-29 18:00:00 13.7 23 Sudeste 39 Sur 0 920.7 -0.9 37
2019-03-29 17:00:00 14.3 17 Sur 37 Sur 0 920.7 -1.3 33
2019-03-29 16:00:00 14.1 21 Sur 36 Sudeste 0 921.1 -1.6 34
2019-03-29 15:00:00 14.4 27 Sur 41 Sudeste 0 921.6 -1.5 36
2019-03-29 14:00:00 14.2 25 Sur 43 Sur 0 922 -1.4 38
2019-03-29 13:00:00 13.2 25 Sur 41 Sudeste 0 922.7 -0.4 40
2019-03-29 12:00:00 11.9 26 Sur 40 Sudeste 0 923.1 0.6 41
2019-03-29 11:00:00 10.8 24 Sur 38 Sudeste 0 923.4 2 46
2019-03-29 10:00:00 8.9 24 Sudeste 35 Sudeste 0 923.1 2 55
2019-03-29 09:00:00 6.1 15 Sudeste 22 Sudeste 0 922.5 1.4 73
2019-03-29 08:00:00 2.7 15 Sudeste 24 Este 0 921.4 0.4 82
2019-03-29 07:00:00 0.9 20 Este 25 Este 0 921.1 -0.2 77
2019-03-29 06:00:00 1.1 12 Este 21 Sudeste 0 921.1 -0.5 72
2019-03-29 05:00:00 1.3 14 Este 24 Este 0 921 -0.9 73
2019-03-29 04:00:00 1.6 15 Este 22 Sudeste 0 921.3 -0.8 72
2019-03-29 03:00:00 1.4 14 Este 21 Sudeste 0 921.6 -0.9 62
2019-03-29 02:00:00 1.5 12 Este 19 Este 0 921.9 -0.7 65
2019-03-29 01:00:00 1.4 13 Este 21 Sudeste 0 922.1 -0.6 62
2019-03-29 00:00:00 2.2 16 Sudeste 19 Sudeste 0 922.5 -0.3 62
2019-03-28 23:00:00 4 15 Sudeste 19 Sudeste 0 922.6 0.1 53
2019-03-28 22:00:00 5.2 13 Sudeste 22 Sur 0 922.7 0.1 43
2019-03-28 21:00:00 6.9 17 Sur 23 Sur 0 922.8 0.2 38
2019-03-28 20:00:00 10.1 16 Sur 31 Sur 0 922.5 0.1 33
2019-03-28 19:00:00 11 20 Sur 31 Sudoeste 0 922.6 -0.1 26
2019-03-28 18:00:00 13.9 22 Sur 37 Sudeste 0 922.6 -0.5 23
2019-03-28 17:00:00 17 18 Sudeste 33 Sudeste 0 922.4 -1.3 23
2019-03-28 16:00:00 17.2 19 Sudeste 37 Sudeste 0 922.7 -1.5 23
2019-03-28 15:00:00 17.4 16 Sudeste 37 Sudeste 0 923.1 -1.6 23
2019-03-28 14:00:00 17.2 18 Sudeste 40 Este 0 923.7 -1.1 24
2019-03-28 13:00:00 15.7 20 Sudeste 36 Sur 0 924.2 -0.3 25
2019-03-28 12:00:00 15.2 17 Sudeste 32 Sudeste 0 924.7 1.5 25
2019-03-28 11:00:00 13.3 21 Sudeste 30 Sudeste 0 924.8 2.2 26
2019-03-28 10:00:00 12 10 Sudeste 18 Este 0 924.5 2 28
2019-03-28 09:00:00 7.2 5 Sudeste 10 Este 0 923.2 0.9 52
2019-03-28 08:00:00 2.4 3 Sudeste 12 Este 0 922.6 0.6 62
2019-03-28 07:00:00 1.8 8 Nordeste 13 Nordeste 0 922.5 0.5 63
2019-03-28 06:00:00 1.3 4 Este 9 Sudeste 0 922.3 0.2 65
2019-03-28 05:00:00 1.9 8 Sudeste 11 Sudeste 0 922 -0.2 64
2019-03-28 04:00:00 2.2 6 Sudeste 9 Sudeste 0 922 -0.4 63
2019-03-28 03:00:00 2.1 6 Este 10 Sudeste 0 922.1 -0.2 62
2019-03-28 02:00:00 2 7 Sudeste 12 Sudeste 0 922.2 0.1 57
2019-03-28 01:00:00 2.4 9 Sudeste 16 Sudeste 0 922.4 0.8 50
2019-03-28 00:00:00 3.5 8 Sudeste 13 Sudeste 0 922.3 1 46
2019-03-27 23:00:00 3.3 12 Sudeste 18 Sudeste 0 922.1 1.3 39
2019-03-27 22:00:00 4 17 Sudeste 22 Este 0 921.6 0.5 36
2019-03-27 21:00:00 5.8 14 Sudeste 22 Sudeste 0 921.3 0.5 29
2019-03-27 20:00:00 7.7 13 Sudeste 22 Sudeste 0 920.8 0.1 24
2019-03-27 19:00:00 11.4 15 Sudeste 30 Este 0 921.1 0.4 21
2019-03-27 18:00:00 14.1 19 Sudeste 32 Este 0 920.8 0 20
2019-03-27 17:00:00 15.8 20 Sudeste 33 Este 0 920.7 -0.6 19
2019-03-27 16:00:00 16.3 17 Sudeste 30 Sudeste 0 920.7 -1 20
2019-03-27 15:00:00 16.6 13 Sudeste 30 Este 0 920.8 -1 21
2019-03-27 14:00:00 15.5 11 Sudeste 26 Sur 0 921.3 -0.4 25
2019-03-27 13:00:00 14.4 11 Sudeste 30 Sudeste 0 921.7 0.8 28
2019-03-27 12:00:00 13.5 14 Sudeste 31 Sudeste 0 921.8 1.8 29
2019-03-27 11:00:00 12 17 Sudeste 30 Sudeste 0 921.7 2.6 33
2019-03-27 10:00:00 9.6 18 Sudeste 28 Sudeste 0 920.9 2.4 41
2019-03-27 09:00:00 7.2 14 Sudeste 22 Sudeste 0 920 1.8 55
2019-03-27 08:00:00 2 15 Este 22 Este 0 919.1 1.1 72
2019-03-27 07:00:00 0.1 14 Este 21 Sudeste 0 918.5 0.5 75
2019-03-27 06:00:00 0.1 11 Este 20 Este 0 918.2 -0.4 80
2019-03-27 05:00:00 -0.1 13 Este 16 Este 0 918 -0.9 88
2019-03-27 04:00:00 0 10 Sudeste 15 Este 0 918 -1.5 90
2019-03-27 03:00:00 0.5 11 Sudeste 14 Sudeste 0 918.6 -0.6 90
2019-03-27 02:00:00 0.7 10 Sudeste 17 Sudeste 0 918.9 -0.2 87
2019-03-27 01:00:00 1.8 13 Sudeste 31 Sudeste 0 919.5 1.1 84
2019-03-27 00:00:00 2.1 14 Sudeste 27 Sudeste 0 919.2 1.2 83